Coral Favia — PHKM — position and weather

sailwx.info

Track history (hours):
 
Tides and Currents Weather Stations Pressure Air Temp Water Temp Dewpoint Dewpoint Depression Visibility Wind Speed Wind Dir Waves Ship Positions

Coral Favia

Last reported at 2014-Aug-01 09:33 UTC. Time now 2014-Aug-01 10:00 UTC.
Position N 35°57' W 005°19'.

Length 100 m; beam 17 m.

Type: Tanker. MMSI: 244627000.

Date/timePositionNaut miles runAvg speedWind from/ knotsBaromVisibWave heightAir tempDewpointWater temp
2014-Aug-01 09:33N 35°57' W 005°19'1 0.8
2014-Aug-01 08:33N 35°56' W 005°20'21311.0
2014-Jul-31 13:08N 37°09' W 001°10'2213.6
2014-Jul-31 11:28N 37°23' W 000°49'1313.7
2014-Jul-31 10:31N 37°32' W 000°36'1313.0
2014-Jul-31 09:33N 37°42' W 000°27'1413.3
2014-Jul-31 08:30N 37°54' W 000°17'1213.0
2014-Jul-31 07:33N 38°04' W 000°09'1412.9
2014-Jul-31 06:29N 38°16' E 000°01'1212.9
2014-Jul-31 05:33N 38°26' E 000°09'2813.0
2014-Jul-31 03:24N 38°50' E 000°27'1313.1
2014-Jul-31 02:26N 39°02' E 000°32'5513.6
2014-Jul-30 22:23N 39°54' E 000°57'1113.7
2014-Jul-30 21:33N 40°05' E 000°59'1313.5
2014-Jul-30 20:33N 40°18' E 001°02'1313.2
2014-Jul-30 19:33N 40°31' E 001°05'1313.1
2014-Jul-30 18:33N 40°44' E 001°08'1312.9
2014-Jul-30 17:33N 40°57' E 001°11'8 8.3
2014-Jul-30 16:33N 41°05' E 001°12'  
2014-Jul-28 06:14N 41°04' E 001°15'0 0.0
2014-Jul-28 05:26N 41°04' E 001°15'0 0.0
2014-Jul-28 02:32N 41°04' E 001°15'0 0.0
2014-Jul-27 23:08N 41°04' E 001°15'0 0.0
2014-Jul-27 22:26N 41°04' E 001°15'0 0.0
2014-Jul-27 18:08N 41°04' E 001°15'0 0.0
2014-Jul-27 17:26N 41°04' E 001°15'0 0.0
2014-Jul-27 06:32N 41°04' E 001°15'0 0.0
2014-Jul-27 05:26N 41°04' E 001°15'0 0.0
2014-Jul-27 04:32N 41°04' E 001°15'0 0.0
2014-Jul-26 23:14N 41°04' E 001°15'0 0.0
2014-Jul-26 22:20N 41°04' E 001°15'0 0.0
2014-Jul-26 21:08N 41°04' E 001°15'0 0.0
2014-Jul-26 20:26N 41°04' E 001°15'0 0.0
2014-Jul-26 19:26N 41°04' E 001°15'0 0.0
2014-Jul-26 14:20N 41°04' E 001°15'1 0.3
2014-Jul-26 10:24N 41°05' E 001°16'0 0.4
2014-Jul-26 09:32N 41°06' E 001°16'0 0.0
2014-Jul-26 08:31N 41°06' E 001°16'0 0.0
2014-Jul-26 07:24N 41°06' E 001°16'0 0.0
2014-Jul-26 06:30N 41°06' E 001°16'0 0.0
2014-Jul-26 05:29N 41°06' E 001°16'0 0.0
2014-Jul-26 04:33N 41°06' E 001°16'0 0.0
2014-Jul-26 03:33N 41°06' E 001°16'0 0.0
2014-Jul-26 02:33N 41°06' E 001°16'0 0.0
2014-Jul-26 01:29N 41°06' E 001°16'0 0.0
2014-Jul-25 23:33N 41°06' E 001°16'0 0.0
2014-Jul-25 22:33N 41°06' E 001°16'0 0.0
2014-Jul-25 21:23N 41°06' E 001°16'0 0.0
2014-Jul-25 20:28N 41°06' E 001°16'0 0.0
2014-Jul-25 19:33N 41°06' E 001°16'0 0.0
2014-Jul-25 18:33N 41°06' E 001°16'7 6.7
2014-Jul-25 17:33N 40°60' E 001°12'1614.0
2014-Jul-25 16:24N 40°44' E 001°08'1214.2
2014-Jul-25 15:33N 40°32' E 001°05'1414.0
2014-Jul-25 14:33N 40°18' E 001°02'1413.9
2014-Jul-25 13:34N 40°05' E 000°59'1413.5
2014-Jul-25 12:33N 39°51' E 000°56'3313.4
2014-Jul-25 10:04N 39°18' E 000°49'713.2
2014-Jul-25 09:31N 39°11' E 000°48'1313.5
2014-Jul-25 08:33N 38°58' E 000°46'7012.7
2014-Jul-25 03:04N 38°02' W 000°06'612.4
2014-Jul-25 02:33N 37°57' W 000°11'1312.7
2014-Jul-25 01:34N 37°46' W 000°20'1313.0
2014-Jul-25 00:34N 37°35' W 000°29'1313.1
2014-Jul-24 23:33N 37°25' W 000°39'1413.4
2014-Jul-24 22:32N 37°15' W 000°51'1313.2
2014-Jul-24 21:33N 37°05' W 001°01'1413.4
2014-Jul-24 20:31N 36°54' W 001°12'136 4.0
2014-Jul-23 10:18N 35°36' W 003°30'9113.4
2014-Jul-23 03:32N 35°57' W 005°19'16113.1
2014-Jul-22 15:14N 36°24' W 008°35'811.9
2014-Jul-22 14:33N 36°21' W 008°45'1413.9
2014-Jul-22 13:33N 36°26' W 009°01'1413.9
2014-Jul-22 12:33N 36°30' W 009°18'2013.9
2014-Jul-22 11:05N 36°44' W 009°36'713.6
2014-Jul-22 10:33N 36°51' W 009°39'  
Track history (hours):
 
Tides and Currents Weather Stations Pressure Air Temp Water Temp Dewpoint Dewpoint Depression Visibility Wind Speed Wind Dir Waves Ship Positions

Coral Favia

Last reported at 2014-Aug-01 09:33 UTC. Time now 2014-Aug-01 10:00 UTC.
Position N 35°57' W 005°19'.

Length 100 m; beam 17 m.

Type: Tanker. MMSI: 244627000.

Date/timePositionNaut miles runAvg speedWind from/ knotsBaromVisibWave heightAir tempDewpointWater temp
2014-Aug-01 09:33N 35°57' W 005°19'1 0.8
2014-Aug-01 08:33N 35°56' W 005°20'21311.0
2014-Jul-31 13:08N 37°09' W 001°10'2213.6
2014-Jul-31 11:28N 37°23' W 000°49'1313.7
2014-Jul-31 10:31N 37°32' W 000°36'1313.0
2014-Jul-31 09:33N 37°42' W 000°27'1413.3
2014-Jul-31 08:30N 37°54' W 000°17'1213.0
2014-Jul-31 07:33N 38°04' W 000°09'1412.9
2014-Jul-31 06:29N 38°16' E 000°01'1212.9
2014-Jul-31 05:33N 38°26' E 000°09'2813.0
2014-Jul-31 03:24N 38°50' E 000°27'1313.1
2014-Jul-31 02:26N 39°02' E 000°32'5513.6
2014-Jul-30 22:23N 39°54' E 000°57'1113.7
2014-Jul-30 21:33N 40°05' E 000°59'1313.5
2014-Jul-30 20:33N 40°18' E 001°02'1313.2
2014-Jul-30 19:33N 40°31' E 001°05'1313.1
2014-Jul-30 18:33N 40°44' E 001°08'1312.9
2014-Jul-30 17:33N 40°57' E 001°11'8 8.3
2014-Jul-30 16:33N 41°05' E 001°12'  
2014-Jul-28 06:14N 41°04' E 001°15'0 0.0
2014-Jul-28 05:26N 41°04' E 001°15'0 0.0
2014-Jul-28 02:32N 41°04' E 001°15'0 0.0
2014-Jul-27 23:08N 41°04' E 001°15'0 0.0
2014-Jul-27 22:26N 41°04' E 001°15'0 0.0
2014-Jul-27 18:08N 41°04' E 001°15'0 0.0
2014-Jul-27 17:26N 41°04' E 001°15'0 0.0
2014-Jul-27 06:32N 41°04' E 001°15'0 0.0
2014-Jul-27 05:26N 41°04' E 001°15'0 0.0
2014-Jul-27 04:32N 41°04' E 001°15'0 0.0
2014-Jul-26 23:14N 41°04' E 001°15'0 0.0
2014-Jul-26 22:20N 41°04' E 001°15'0 0.0
2014-Jul-26 21:08N 41°04' E 001°15'0 0.0
2014-Jul-26 20:26N 41°04' E 001°15'0 0.0
2014-Jul-26 19:26N 41°04' E 001°15'0 0.0
2014-Jul-26 14:20N 41°04' E 001°15'1 0.3
2014-Jul-26 10:24N 41°05' E 001°16'0 0.4
2014-Jul-26 09:32N 41°06' E 001°16'0 0.0
2014-Jul-26 08:31N 41°06' E 001°16'0 0.0
2014-Jul-26 07:24N 41°06' E 001°16'0 0.0
2014-Jul-26 06:30N 41°06' E 001°16'0 0.0
2014-Jul-26 05:29N 41°06' E 001°16'0 0.0
2014-Jul-26 04:33N 41°06' E 001°16'0 0.0
2014-Jul-26 03:33N 41°06' E 001°16'0 0.0
2014-Jul-26 02:33N 41°06' E 001°16'0 0.0
2014-Jul-26 01:29N 41°06' E 001°16'0 0.0
2014-Jul-25 23:33N 41°06' E 001°16'0 0.0
2014-Jul-25 22:33N 41°06' E 001°16'0 0.0
2014-Jul-25 21:23N 41°06' E 001°16'0 0.0
2014-Jul-25 20:28N 41°06' E 001°16'0 0.0
2014-Jul-25 19:33N 41°06' E 001°16'0 0.0
2014-Jul-25 18:33N 41°06' E 001°16'7 6.7
2014-Jul-25 17:33N 40°60' E 001°12'1614.0
2014-Jul-25 16:24N 40°44' E 001°08'1214.2
2014-Jul-25 15:33N 40°32' E 001°05'1414.0
2014-Jul-25 14:33N 40°18' E 001°02'1413.9
2014-Jul-25 13:34N 40°05' E 000°59'1413.5
2014-Jul-25 12:33N 39°51' E 000°56'3313.4
2014-Jul-25 10:04N 39°18' E 000°49'713.2
2014-Jul-25 09:31N 39°11' E 000°48'1313.5
2014-Jul-25 08:33N 38°58' E 000°46'7012.7
2014-Jul-25 03:04N 38°02' W 000°06'612.4
2014-Jul-25 02:33N 37°57' W 000°11'1312.7
2014-Jul-25 01:34N 37°46' W 000°20'1313.0
2014-Jul-25 00:34N 37°35' W 000°29'1313.1
2014-Jul-24 23:33N 37°25' W 000°39'1413.4
2014-Jul-24 22:32N 37°15' W 000°51'1313.2
2014-Jul-24 21:33N 37°05' W 001°01'1413.4
2014-Jul-24 20:31N 36°54' W 001°12'136 4.0
2014-Jul-23 10:18N 35°36' W 003°30'9113.4
2014-Jul-23 03:32N 35°57' W 005°19'16113.1
2014-Jul-22 15:14N 36°24' W 008°35'811.9
2014-Jul-22 14:33N 36°21' W 008°45'1413.9
2014-Jul-22 13:33N 36°26' W 009°01'1413.9
2014-Jul-22 12:33N 36°30' W 009°18'2013.9
2014-Jul-22 11:05N 36°44' W 009°36'713.6
2014-Jul-22 10:33N 36°51' W 009°39'  

Dump ship's entire track history